Time;durP1;ratioP1;P1;durP2;ratioP2;P2;SDS_P1;SDS_P2;PMS_P1;PMS_P2;Temp;Humidity;BMP_temperature;BMP_pressure;BME280_temperature;BME280_humidity;BME280_pressure;Samples;Min_cycle;Max_cycle;Signal;HPM_P1;HPM_P2
2022/10/29 00:02:07;;;;;;;31.00;6.05;;;13.10;99.90;;;;;;6186051;23;20023;-82
2022/10/29 00:04:33;;;;;;;23.92;6.20;;;13.10;99.90;;;;;;6185995;23;20162;-82
2022/10/29 00:06:58;;;;;;;28.55;6.75;;;13.10;99.90;;;;;;6184857;23;20062;-82
2022/10/29 00:09:24;;;;;;;25.70;5.60;;;13.10;99.90;;;;;;6184094;23;20086;-81
2022/10/29 00:11:50;;;;;;;21.15;5.20;;;13.10;99.90;;;;;;6208305;23;20016;-82
2022/10/29 00:14:16;;;;;;;27.13;6.03;;;13.00;99.90;;;;;;6211201;23;20070;-82
2022/10/29 00:16:41;;;;;;;29.30;5.93;;;13.00;99.90;;;;;;6183779;23;20021;-82
2022/10/29 00:19:08;;;;;;;23.77;4.38;;;13.00;99.90;;;;;;6184162;23;20047;-82
2022/10/29 00:21:34;;;;;;;23.05;5.85;;;12.90;99.90;;;;;;6210604;23;20433;-82
2022/10/29 00:23:59;;;;;;;23.08;5.18;;;12.90;99.90;;;;;;6210160;23;20013;-82
2022/10/29 00:26:27;;;;;;;21.95;5.38;;;12.90;99.90;;;;;;6183568;23;20067;-82
2022/10/29 00:28:55;;;;;;;14.55;4.18;;;12.90;99.90;;;;;;6184036;23;20448;-82
2022/10/29 00:31:24;;;;;;;25.55;5.53;;;12.90;99.90;;;;;;6183485;23;20079;-82
2022/10/29 00:33:51;;;;;;;19.83;4.85;;;12.90;99.90;;;;;;6183808;23;20453;-82
2022/10/29 00:36:21;;;;;;;21.52;5.72;;;12.80;99.90;;;;;;6183899;23;20048;-83
2022/10/29 00:38:47;;;;;;;16.83;4.97;;;12.80;99.90;;;;;;6158563;23;20035;-82
2022/10/29 00:41:19;;;;;;;18.70;5.10;;;12.80;99.90;;;;;;6183148;23;20035;-82
2022/10/29 00:43:50;;;;;;;16.63;4.72;;;12.80;99.90;;;;;;6211171;23;20013;-82
2022/10/29 00:46:30;;;;;;;17.98;4.47;;;12.70;99.90;;;;;;6184061;23;20059;-83
2022/10/29 00:48:57;;;;;;;15.57;4.72;;;12.70;99.90;;;;;;6183581;23;20043;-82
2022/10/29 00:51:24;;;;;;;17.98;4.78;;;12.70;99.90;;;;;;6159094;23;20056;-82
2022/10/29 00:54:03;;;;;;;15.35;3.67;;;12.60;99.90;;;;;;6210275;23;20017;-82
2022/10/29 00:56:33;;;;;;;12.20;4.25;;;12.60;99.90;;;;;;6210143;23;20021;-83
2022/10/29 00:58:59;;;;;;;17.65;4.50;;;12.50;99.90;;;;;;6210209;23;20051;-82
2022/10/29 01:01:24;;;;;;;14.43;4.10;;;12.50;99.90;;;;;;6210173;23;20361;-82
2022/10/29 01:03:51;;;;;;;17.23;4.93;;;12.40;99.90;;;;;;6184156;23;20023;-82
2022/10/29 01:06:18;;;;;;;24.52;6.45;;;12.40;99.90;;;;;;6210359;23;20074;-83
2022/10/29 01:08:43;;;;;;;18.95;5.00;;;12.40;99.90;;;;;;6183311;23;20020;-82
2022/10/29 01:11:36;;;;;;;13.63;4.75;;;12.30;99.90;;;;;;6183091;23;20524;-82
2022/10/29 01:14:15;;;;;;;25.90;5.78;;;12.30;99.90;;;;;;6210023;23;20086;-83
2022/10/29 01:16:53;;;;;;;17.38;5.25;;;12.30;99.90;;;;;;6210539;23;20012;-82
2022/10/29 01:19:39;;;;;;;15.38;4.80;;;12.30;99.90;;;;;;6210567;23;20017;-83
2022/10/29 01:22:26;;;;;;;17.05;5.78;;;12.20;99.90;;;;;;6183340;23;20020;-82
2022/10/29 01:25:22;;;;;;;19.83;5.57;;;12.20;99.90;;;;;;6208177;23;20025;-82
2022/10/29 01:27:57;;;;;;;23.00;6.00;;;12.20;99.90;;;;;;6183281;23;20012;-82
2022/10/29 01:30:41;;;;;;;16.35;6.07;;;12.20;99.90;;;;;;6183196;23;20087;-82
2022/10/29 01:33:22;;;;;;;18.00;5.80;;;12.20;99.90;;;;;;6182642;23;20016;-82
2022/10/29 01:35:57;;;;;;;12.93;4.68;;;12.20;99.90;;;;;;6210235;23;20402;-82
2022/10/29 01:39:04;;;;;;;12.63;4.82;;;12.20;99.90;;;;;;6182552;23;20024;-82
2022/10/29 01:41:57;;;;;;;21.10;6.35;;;12.20;99.90;;;;;;6183063;23;20066;-82
2022/10/29 01:44:36;;;;;;;37.35;7.65;;;12.10;99.90;;;;;;6210319;23;20296;-82
2022/10/29 01:47:04;;;;;;;39.03;6.85;;;12.10;99.90;;;;;;6183718;23;20492;-82
2022/10/29 01:49:37;;;;;;;21.13;6.15;;;12.10;99.90;;;;;;6210123;23;20345;-82
2022/10/29 01:52:06;;;;;;;20.65;6.15;;;12.10;99.90;;;;;;6183218;23;20756;-82
2022/10/29 01:54:32;;;;;;;15.80;5.65;;;12.10;99.90;;;;;;6209260;23;20012;-82
2022/10/29 01:56:59;;;;;;;29.60;5.65;;;12.10;99.90;;;;;;6210160;23;20028;-82
2022/10/29 01:59:30;;;;;;;16.45;4.80;;;12.00;99.90;;;;;;6157958;23;20020;-81
2022/10/29 02:02:14;;;;;;;18.27;5.38;;;12.00;99.90;;;;;;6209736;23;20050;-82
2022/10/29 02:04:58;;;;;;;43.22;7.10;;;12.00;99.90;;;;;;6183075;23;20051;-81
2022/10/29 02:07:36;;;;;;;14.43;5.43;;;12.00;99.90;;;;;;6214494;23;20016;-82
2022/10/29 02:10:10;;;;;;;16.70;5.75;;;12.00;99.90;;;;;;6212853;23;20071;-82
2022/10/29 02:12:47;;;;;;;11.85;6.03;;;12.00;99.90;;;;;;6184829;23;20025;-82
2022/10/29 02:15:32;;;;;;;13.15;5.32;;;11.90;99.90;;;;;;6210229;23;20092;-82
2022/10/29 02:17:59;;;;;;;16.27;6.43;;;11.90;99.90;;;;;;6209966;23;20020;-82
2022/10/29 02:20:24;;;;;;;19.30;6.82;;;11.90;99.90;;;;;;6183283;23;20031;-82
2022/10/29 02:22:50;;;;;;;15.85;6.35;;;11.90;99.90;;;;;;6182518;23;20369;-82
2022/10/29 02:25:16;;;;;;;18.00;6.28;;;11.90;99.90;;;;;;6209631;23;20020;-82
2022/10/29 02:27:41;;;;;;;19.20;6.30;;;11.90;99.90;;;;;;6182866;23;20024;-81
2022/10/29 02:30:07;;;;;;;21.50;6.75;;;11.90;99.90;;;;;;6183020;23;20451;-82
2022/10/29 02:32:33;;;;;;;15.30;6.63;;;11.90;99.90;;;;;;6209891;23;20055;-82
2022/10/29 02:35:00;;;;;;;33.40;7.30;;;11.90;99.90;;;;;;6209874;23;20354;-81
2022/10/29 02:37:25;;;;;;;21.58;7.32;;;11.90;99.90;;;;;;6209227;23;20048;-82
2022/10/29 02:39:51;;;;;;;28.20;7.03;;;11.90;99.90;;;;;;6209012;23;20082;-82
2022/10/29 02:42:17;;;;;;;24.92;7.55;;;11.80;99.90;;;;;;6209965;23;20017;-82
2022/10/29 02:44:42;;;;;;;30.67;7.72;;;11.90;99.90;;;;;;6182823;23;20012;-82
2022/10/29 02:47:08;;;;;;;18.67;6.75;;;11.90;99.90;;;;;;6184525;23;20691;-81
2022/10/29 02:49:33;;;;;;;16.65;6.00;;;11.90;99.90;;;;;;6184870;23;20013;-82
2022/10/29 02:51:59;;;;;;;17.63;6.10;;;11.80;99.90;;;;;;6209650;23;20020;-82
2022/10/29 02:54:24;;;;;;;22.58;6.45;;;11.80;99.90;;;;;;6211630;23;20055;-82
2022/10/29 02:56:50;;;;;;;72.57;9.25;;;11.80;99.90;;;;;;6211571;23;20012;-82
2022/10/29 02:59:16;;;;;;;30.38;6.72;;;11.80;99.90;;;;;;6211506;23;20098;-82
2022/10/29 03:01:41;;;;;;;33.90;7.55;;;11.80;99.90;;;;;;6184370;23;20023;-82
2022/10/29 03:04:09;;;;;;;37.63;6.97;;;11.80;99.90;;;;;;6211134;23;20016;-82
2022/10/29 03:06:35;;;;;;;22.13;7.60;;;11.80;99.90;;;;;;6211209;23;20012;-83
2022/10/29 03:09:01;;;;;;;21.52;6.47;;;11.80;99.90;;;;;;6211778;23;20063;-82
2022/10/29 03:11:26;;;;;;;20.83;5.97;;;11.80;99.90;;;;;;6184647;23;20388;-82
2022/10/29 03:13:52;;;;;;;26.77;6.78;;;11.80;99.90;;;;;;6184826;23;20024;-81
2022/10/29 03:16:17;;;;;;;23.15;5.78;;;11.90;99.90;;;;;;6184439;23;20031;-82
2022/10/29 03:18:43;;;;;;;19.75;6.13;;;11.90;99.90;;;;;;6211536;23;20389;-81
2022/10/29 03:21:09;;;;;;;22.67;5.88;;;12.00;99.90;;;;;;6183971;23;20138;-82
2022/10/29 03:23:34;;;;;;;26.63;6.28;;;11.90;99.90;;;;;;6159352;23;20348;-82
2022/10/29 03:26:00;;;;;;;21.30;6.75;;;11.90;99.90;;;;;;6184685;23;20028;-82
2022/10/29 03:28:27;;;;;;;35.22;7.03;;;12.00;99.90;;;;;;6210731;23;20314;-82
2022/10/29 03:30:53;;;;;;;20.65;6.82;;;12.00;99.90;;;;;;6210989;23;20016;-82
2022/10/29 03:33:19;;;;;;;25.38;7.63;;;12.10;99.90;;;;;;6184301;23;20021;-82
2022/10/29 03:35:44;;;;;;;17.77;6.50;;;12.10;99.90;;;;;;6210659;23;20078;-82
2022/10/29 03:38:10;;;;;;;72.25;10.35;;;12.10;99.90;;;;;;6211050;23;20020;-82
2022/10/29 03:40:35;;;;;;;41.53;8.07;;;12.10;99.90;;;;;;6184368;23;20023;-82
2022/10/29 03:43:01;;;;;;;75.55;8.55;;;12.20;99.90;;;;;;6211068;23;20415;-82
2022/10/29 03:45:26;;;;;;;34.85;7.30;;;12.20;99.90;;;;;;6184144;23;20067;-82
2022/10/29 03:47:52;;;;;;;46.80;8.10;;;12.20;99.90;;;;;;6184435;23;20044;-82
2022/10/29 03:50:18;;;;;;;82.03;9.13;;;12.20;99.90;;;;;;6210926;23;20337;-82
2022/10/29 03:52:43;;;;;;;44.65;7.70;;;12.20;99.90;;;;;;6211321;23;20023;-82
2022/10/29 03:55:09;;;;;;;78.40;10.35;;;12.20;99.90;;;;;;6184172;23;20020;-82
2022/10/29 03:57:34;;;;;;;71.63;8.95;;;12.30;99.90;;;;;;6184064;23;20023;-82
2022/10/29 04:00:03;;;;;;;91.53;9.20;;;12.20;99.90;;;;;;6184267;23;20020;-82
2022/10/29 04:02:29;;;;;;;74.90;8.88;;;12.30;99.90;;;;;;6183063;23;20303;-82
2022/10/29 04:04:55;;;;;;;175.02;11.98;;;12.20;99.90;;;;;;6183273;23;20447;-82
2022/10/29 04:07:20;;;;;;;87.22;9.85;;;12.30;99.90;;;;;;6211207;23;20334;-82
2022/10/29 04:09:46;;;;;;;104.80;11.63;;;12.30;99.90;;;;;;6210956;23;20074;-81
2022/10/29 04:12:12;;;;;;;61.90;9.98;;;12.30;99.90;;;;;;6184870;23;20500;-82
2022/10/29 04:14:37;;;;;;;110.13;11.43;;;12.30;99.90;;;;;;6211597;23;20035;-82
2022/10/29 04:17:03;;;;;;;107.28;10.85;;;12.30;99.90;;;;;;6183988;23;20438;-82
2022/10/29 04:19:28;;;;;;;140.50;12.38;;;12.30;99.90;;;;;;6183500;23;20023;-82
2022/10/29 04:21:54;;;;;;;89.28;11.63;;;12.30;99.90;;;;;;6210704;23;20013;-82
2022/10/29 04:24:19;;;;;;;53.90;10.85;;;12.30;99.90;;;;;;6184576;23;20024;-82
2022/10/29 04:26:45;;;;;;;143.05;13.38;;;12.30;99.90;;;;;;6183466;23;20027;-82
2022/10/29 04:29:11;;;;;;;66.75;11.40;;;12.30;99.90;;;;;;6210877;23;20071;-82
2022/10/29 04:31:37;;;;;;;117.63;13.13;;;12.30;99.90;;;;;;6210738;23;20013;-81
2022/10/29 04:34:03;;;;;;;80.15;11.98;;;12.30;99.90;;;;;;6183237;23;20020;-81
2022/10/29 04:36:29;;;;;;;141.18;14.07;;;12.30;99.90;;;;;;6184116;23;20024;-82
2022/10/29 04:38:54;;;;;;;32.70;9.52;;;12.30;99.90;;;;;;6210580;23;20013;-82
2022/10/29 04:41:20;;;;;;;66.25;11.60;;;12.40;99.90;;;;;;6210388;23;20070;-82
2022/10/29 04:43:46;;;;;;;55.03;9.93;;;12.30;99.90;;;;;;6183392;23;20056;-82
2022/10/29 04:46:11;;;;;;;168.70;15.30;;;12.40;99.90;;;;;;6184095;23;20091;-82
2022/10/29 04:48:37;;;;;;;79.22;10.82;;;12.30;99.90;;;;;;6158290;23;20334;-81
2022/10/29 04:51:03;;;;;;;68.18;13.18;;;12.40;99.90;;;;;;6210594;23;20087;-81
2022/10/29 04:53:29;;;;;;;104.07;14.10;;;12.40;99.90;;;;;;6183763;23;20022;-82
2022/10/29 04:55:59;;;;;;;177.48;17.15;;;12.40;99.90;;;;;;6210407;23;20708;-81
2022/10/29 04:58:25;;;;;;;87.75;14.68;;;12.40;99.90;;;;;;6158564;23;20067;-82
2022/10/29 05:00:51;;;;;;;112.40;13.63;;;12.40;99.90;;;;;;6183470;23;20096;-81
2022/10/29 05:03:17;;;;;;;97.95;13.23;;;12.40;99.90;;;;;;6183241;23;20023;-82
2022/10/29 05:05:42;;;;;;;85.88;13.40;;;12.40;99.90;;;;;;6158654;23;20047;-82
2022/10/29 05:08:09;;;;;;;44.78;11.88;;;12.40;99.90;;;;;;6183406;23;20078;-82
2022/10/29 05:10:37;;;;;;;62.78;11.70;;;12.40;99.90;;;;;;6209968;23;20012;-82
2022/10/29 05:13:08;;;;;;;78.55;12.18;;;12.50;99.90;;;;;;6210919;23;20030;-81
2022/10/29 05:15:34;;;;;;;67.22;11.68;;;12.50;99.90;;;;;;6210627;23;20040;-81
2022/10/29 05:18:00;;;;;;;88.47;13.63;;;12.50;99.90;;;;;;6210834;23;20020;-81
2022/10/29 05:20:26;;;;;;;108.00;13.27;;;12.50;99.90;;;;;;6184713;23;20013;-81
2022/10/29 05:23:05;;;;;;;116.82;14.50;;;12.50;99.90;;;;;;6210536;23;20381;-81
2022/10/29 05:25:34;;;;;;;74.10;12.80;;;12.50;99.90;;;;;;6210837;23;20008;-81
2022/10/29 05:28:05;;;;;;;105.65;14.20;;;12.50;99.90;;;;;;6183805;23;20135;-80
2022/10/29 05:30:32;;;;;;;90.50;13.98;;;12.50;99.90;;;;;;6183285;23;20013;-81
2022/10/29 05:32:58;;;;;;;146.65;15.32;;;12.50;99.90;;;;;;6183160;23;20024;-80
2022/10/29 05:35:24;;;;;;;87.03;14.93;;;12.50;99.90;;;;;;6183582;23;20433;-80
2022/10/29 05:37:51;;;;;;;107.18;16.00;;;12.50;99.90;;;;;;6210677;23;20441;-81
2022/10/29 05:40:17;;;;;;;133.00;15.13;;;12.50;99.90;;;;;;6210635;23;20017;-81
2022/10/29 05:42:43;;;;;;;63.75;12.55;;;12.50;99.90;;;;;;6183652;23;20021;-81
2022/10/29 05:45:09;;;;;;;65.88;13.27;;;12.50;99.90;;;;;;6183955;23;20076;-82
2022/10/29 05:47:34;;;;;;;111.70;13.88;;;12.50;99.90;;;;;;6210960;23;20490;-81
2022/10/29 05:50:00;;;;;;;94.38;12.80;;;12.50;99.90;;;;;;6184625;23;20082;-81
2022/10/29 05:52:25;;;;;;;139.23;15.90;;;12.50;99.90;;;;;;6184142;23;20122;-80
2022/10/29 05:54:51;;;;;;;69.63;13.48;;;12.60;99.90;;;;;;6210863;23;20052;-80
2022/10/29 05:57:17;;;;;;;71.95;12.75;;;12.60;99.90;;;;;;6211372;23;20024;-80
2022/10/29 05:59:42;;;;;;;126.22;14.93;;;12.60;99.90;;;;;;6208800;23;20028;-81
2022/10/29 06:02:09;;;;;;;135.43;16.60;;;12.60;99.90;;;;;;6184440;23;20123;-80
2022/10/29 06:04:34;;;;;;;98.55;13.15;;;12.60;99.90;;;;;;6184710;23;20013;-80
2022/10/29 06:07:00;;;;;;;80.10;14.60;;;12.60;99.90;;;;;;6211021;23;20020;-80
2022/10/29 06:09:26;;;;;;;105.13;15.68;;;12.60;99.90;;;;;;6210746;23;20017;-80
2022/10/29 06:11:53;;;;;;;45.30;12.85;;;12.60;99.90;;;;;;6158836;23;20016;-80
2022/10/29 06:14:18;;;;;;;149.38;20.50;;;12.60;99.90;;;;;;6210400;23;20059;-81
2022/10/29 06:16:44;;;;;;;153.05;16.95;;;12.60;99.90;;;;;;6184899;23;20013;-80
2022/10/29 06:19:09;;;;;;;62.75;15.30;;;12.60;99.90;;;;;;6211687;23;20427;-80
2022/10/29 06:21:35;;;;;;;77.32;14.80;;;12.60;99.90;;;;;;6184087;23;20017;-81
2022/10/29 06:24:01;;;;;;;88.07;15.98;;;12.60;99.90;;;;;;6212625;23;20279;-79
2022/10/29 06:26:27;;;;;;;66.22;15.32;;;12.70;99.90;;;;;;6186114;23;20016;-79
2022/10/29 06:28:52;;;;;;;123.72;18.48;;;12.70;99.90;;;;;;6185619;23;20396;-80
2022/10/29 06:31:18;;;;;;;45.15;15.35;;;12.70;99.90;;;;;;6212760;23;20008;-82
2022/10/29 06:33:44;;;;;;;34.60;13.32;;;12.70;99.90;;;;;;6212951;23;20016;-82
2022/10/29 06:36:09;;;;;;;56.00;14.32;;;12.80;99.90;;;;;;6211415;23;20024;-81
2022/10/29 06:38:35;;;;;;;77.82;14.40;;;12.70;99.90;;;;;;6184586;23;20032;-81
2022/10/29 06:41:01;;;;;;;55.80;13.73;;;12.80;99.90;;;;;;6211827;23;20023;-82
2022/10/29 06:43:26;;;;;;;61.80;14.43;;;12.80;99.90;;;;;;6211823;23;20013;-81
2022/10/29 06:45:52;;;;;;;71.22;13.90;;;12.80;99.90;;;;;;6213008;23;20016;-81
2022/10/29 06:48:17;;;;;;;74.95;16.65;;;12.80;99.90;;;;;;6212626;23;20086;-81
2022/10/29 06:50:43;;;;;;;77.75;16.67;;;12.80;99.90;;;;;;6185265;23;20044;-81
2022/10/29 06:53:12;;;;;;;114.70;14.88;;;12.80;99.90;;;;;;6185650;23;20020;-82
2022/10/29 06:55:38;;;;;;;64.75;14.32;;;12.80;99.90;;;;;;6212027;23;20019;-82
2022/10/29 06:58:05;;;;;;;43.70;12.55;;;12.90;99.90;;;;;;6211301;23;20009;-82
2022/10/29 07:00:32;;;;;;;62.83;15.70;;;12.90;99.90;;;;;;6211986;23;20017;-82
2022/10/29 07:02:59;;;;;;;50.75;14.82;;;13.00;99.90;;;;;;6212023;23;20027;-81
2022/10/29 07:05:25;;;;;;;50.35;13.85;;;13.00;99.90;;;;;;6211044;23;20035;-82
2022/10/29 07:07:59;;;;;;;44.47;14.15;;;13.00;99.90;;;;;;6185073;23;20020;-84
2022/10/29 07:10:27;;;;;;;64.97;14.45;;;13.10;99.90;;;;;;6160304;23;20037;-82
2022/10/29 07:12:53;;;;;;;74.82;14.95;;;13.10;99.90;;;;;;6183787;23;20460;-81
2022/10/29 07:15:19;;;;;;;84.40;13.93;;;13.10;99.90;;;;;;6184174;23;20012;-82
2022/10/29 07:18:14;;;;;;;61.35;15.20;;;13.10;99.90;;;;;;6183536;23;20024;-82
2022/10/29 07:20:42;;;;;;;104.97;16.33;;;13.20;99.90;;;;;;6179831;23;20073;-81
2022/10/29 07:23:09;;;;;;;66.40;14.43;;;13.20;99.90;;;;;;6185117;23;20066;-81
2022/10/29 07:25:35;;;;;;;88.15;16.67;;;13.20;99.90;;;;;;6212113;23;20020;-81
2022/10/29 07:28:15;;;;;;;62.97;15.70;;;13.20;99.90;;;;;;6211660;23;20012;-82
2022/10/29 07:30:41;;;;;;;49.38;15.38;;;13.20;99.90;;;;;;6185413;23;20026;-81
2022/10/29 07:33:07;;;;;;;48.00;15.23;;;13.30;99.90;;;;;;6184399;23;20051;-81
2022/10/29 07:35:33;;;;;;;55.45;18.25;;;13.30;99.90;;;;;;6209451;23;20437;-81
2022/10/29 07:38:00;;;;;;;54.33;17.05;;;13.20;99.90;;;;;;6184584;23;20060;-81
2022/10/29 07:40:26;;;;;;;43.17;17.05;;;13.30;99.90;;;;;;6184719;23;20441;-81
2022/10/29 07:42:52;;;;;;;47.05;19.23;;;13.30;99.90;;;;;;6183452;23;20024;-80
2022/10/29 07:45:18;;;;;;;47.90;18.50;;;13.30;99.90;;;;;;6211319;23;20008;-81
2022/10/29 07:47:44;;;;;;;49.08;18.13;;;13.40;99.90;;;;;;6210333;23;20163;-82
2022/10/29 07:50:10;;;;;;;70.30;19.38;;;13.30;99.90;;;;;;6183513;23;20020;-81
2022/10/29 07:52:36;;;;;;;66.20;19.95;;;13.40;99.90;;;;;;6210933;23;20043;-81
2022/10/29 07:55:01;;;;;;;49.97;21.40;;;13.30;99.90;;;;;;6211077;23;20028;-80
2022/10/29 07:57:27;;;;;;;80.43;22.42;;;13.40;99.90;;;;;;6208560;23;20009;-81
2022/10/29 07:59:53;;;;;;;49.95;20.42;;;13.40;99.90;;;;;;6182990;23;20023;-81
2022/10/29 08:02:19;;;;;;;53.45;22.27;;;13.40;99.90;;;;;;6182931;23;20103;-81
2022/10/29 08:04:44;;;;;;;57.88;20.63;;;13.40;99.90;;;;;;6183415;23;20013;-80
2022/10/29 08:07:10;;;;;;;49.03;20.60;;;13.40;99.90;;;;;;6182202;23;20027;-81
2022/10/29 08:09:36;;;;;;;37.70;19.48;;;13.40;99.90;;;;;;6209330;23;20048;-81
2022/10/29 08:12:03;;;;;;;42.60;19.35;;;13.40;99.90;;;;;;6182670;23;20063;-80
2022/10/29 08:14:29;;;;;;;43.03;20.70;;;13.50;99.90;;;;;;6209901;23;20012;-81
2022/10/29 08:16:55;;;;;;;41.30;20.17;;;13.50;99.90;;;;;;6181692;23;20092;-80
2022/10/29 08:19:21;;;;;;;47.20;20.85;;;13.50;99.90;;;;;;6182732;23;20017;-81
2022/10/29 08:21:46;;;;;;;54.80;22.55;;;13.50;99.90;;;;;;6173799;23;20089;-80
2022/10/29 08:24:12;;;;;;;48.25;22.02;;;13.50;99.90;;;;;;6209639;23;20385;-80
2022/10/29 08:26:38;;;;;;;41.45;21.08;;;13.60;99.90;;;;;;6183483;23;20088;-81
2022/10/29 08:29:03;;;;;;;42.75;20.60;;;13.60;99.90;;;;;;6157469;23;20058;-82
2022/10/29 08:31:29;;;;;;;42.67;21.25;;;13.70;99.90;;;;;;6208291;23;20363;-84
2022/10/29 08:33:55;;;;;;;41.83;20.75;;;13.80;99.90;;;;;;6209120;23;20012;-81
2022/10/29 08:36:20;;;;;;;39.90;19.92;;;13.70;99.90;;;;;;6182821;23;20042;-81
2022/10/29 08:38:49;;;;;;;37.78;20.02;;;13.70;99.90;;;;;;6181011;23;20024;-81
2022/10/29 08:41:30;;;;;;;39.15;19.77;;;13.80;99.90;;;;;;6182069;23;20024;-81
2022/10/29 08:44:17;;;;;;;35.28;17.10;;;13.80;99.90;;;;;;6203814;23;20651;-80
2022/10/29 08:46:55;;;;;;;33.67;19.15;;;13.80;99.90;;;;;;6180618;23;20021;-80
2022/10/29 08:49:55;;;;;;;36.20;17.08;;;13.80;99.90;;;;;;6181749;23;20009;-80
2022/10/29 08:52:26;;;;;;;30.95;17.10;;;13.90;99.90;;;;;;6100686;23;20102;-80
2022/10/29 08:55:11;;;;;;;33.83;15.68;;;13.90;99.90;;;;;;6156978;23;20028;-80
2022/10/29 08:57:42;;;;;;;30.30;16.27;;;13.90;99.90;;;;;;6182068;23;20020;-82
2022/10/29 09:00:32;;;;;;;33.45;15.90;;;14.00;99.90;;;;;;6207794;23;20016;-80
2022/10/29 09:02:59;;;;;;;38.85;17.23;;;14.00;99.90;;;;;;6155839;23;20384;-81
2022/10/29 09:05:31;;;;;;;30.58;15.98;;;14.10;99.90;;;;;;6208722;23;20013;-81
2022/10/29 09:08:36;;;;;;;38.92;16.30;;;14.10;99.90;;;;;;6180734;23;20023;-81
2022/10/29 09:11:43;;;;;;;31.85;15.95;;;14.20;99.90;;;;;;6180825;23;20024;-81
2022/10/29 09:14:27;;;;;;;30.70;15.20;;;14.20;99.90;;;;;;6162049;23;20087;-81
2022/10/29 09:17:14;;;;;;;34.70;16.35;;;14.30;99.90;;;;;;6181520;23;20774;-81
2022/10/29 09:20:06;;;;;;;35.78;15.88;;;14.30;99.90;;;;;;6208339;23;20137;-81
2022/10/29 09:22:59;;;;;;;37.83;15.82;;;14.40;99.90;;;;;;6208050;23;20017;-81
2022/10/29 09:25:29;;;;;;;30.17;15.68;;;14.40;99.90;;;;;;6209104;23;20009;-82
2022/10/29 09:28:14;;;;;;;35.35;15.90;;;14.40;99.90;;;;;;6180932;23;20021;-80
2022/10/29 09:30:57;;;;;;;32.05;15.35;;;14.40;99.90;;;;;;6182653;23;20088;-80
2022/10/29 09:33:23;;;;;;;29.13;14.65;;;14.50;99.90;;;;;;6156714;23;20020;-87
2022/10/29 09:35:58;;;;;;;32.03;15.38;;;14.50;99.90;;;;;;6208994;23;20433;-84
2022/10/29 09:38:35;;;;;;;38.45;15.88;;;14.60;99.90;;;;;;6106349;23;1053547;-85
2022/10/29 09:41:01;;;;;;;32.22;16.23;;;14.60;99.90;;;;;;6177972;23;20048;-84
2022/10/29 09:43:36;;;;;;;30.85;15.30;;;14.70;99.90;;;;;;6179354;23;20020;-84
2022/10/29 09:46:19;;;;;;;31.30;15.15;;;14.70;99.90;;;;;;6178641;23;20013;-84
2022/10/29 09:48:57;;;;;;;29.48;15.40;;;14.80;99.90;;;;;;6179509;23;20016;-84
2022/10/29 09:51:44;;;;;;;30.27;15.95;;;14.70;99.90;;;;;;6176664;23;20021;-84
2022/10/29 09:54:10;;;;;;;29.23;14.65;;;14.70;99.90;;;;;;6179364;23;20017;-84
2022/10/29 09:56:40;;;;;;;35.80;16.02;;;14.70;99.90;;;;;;6179851;23;20032;-84
2022/10/29 09:59:36;;;;;;;32.03;15.18;;;14.70;99.90;;;;;;6178225;23;20021;-84
2022/10/29 10:02:14;;;;;;;28.23;14.93;;;14.70;99.90;;;;;;6177370;23;20024;-84
2022/10/29 10:04:45;;;;;;;33.13;16.08;;;14.70;99.90;;;;;;6179360;23;20342;-84
2022/10/29 10:07:16;;;;;;;26.80;15.15;;;14.80;99.90;;;;;;6178965;23;20040;-84
2022/10/29 10:09:55;;;;;;;27.40;15.15;;;14.80;99.90;;;;;;6177183;23;20013;-84
2022/10/29 10:12:27;;;;;;;29.67;14.63;;;14.90;99.90;;;;;;6176909;23;20016;-84
2022/10/29 10:15:15;;;;;;;30.02;15.95;;;15.00;99.90;;;;;;6178243;23;20028;-84
2022/10/29 10:17:53;;;;;;;30.95;14.98;;;15.10;99.90;;;;;;6179685;23;20132;-84
2022/10/29 10:20:43;;;;;;;33.40;14.88;;;15.30;99.90;;;;;;6176923;23;20108;-84
2022/10/29 10:23:23;;;;;;;32.67;15.68;;;15.40;99.90;;;;;;6179548;23;20017;-85
2022/10/29 10:25:49;;;;;;;29.08;15.75;;;15.40;99.90;;;;;;6176794;23;20013;-85
2022/10/29 10:28:19;;;;;;;35.28;16.27;;;15.50;99.90;;;;;;6179079;23;20009;-85
2022/10/29 10:31:05;;;;;;;33.13;17.27;;;15.50;99.90;;;;;;6181296;23;20233;-84
2022/10/29 10:33:33;;;;;;;32.35;17.55;;;15.60;99.90;;;;;;6180280;23;20044;-85
2022/10/29 10:36:07;;;;;;;34.72;16.42;;;15.60;99.90;;;;;;6179320;23;20511;-84
2022/10/29 10:38:43;;;;;;;33.55;17.30;;;15.60;99.90;;;;;;6196365;23;20028;-85
2022/10/29 10:41:11;;;;;;;30.38;16.40;;;15.70;99.90;;;;;;6182624;23;20016;-84
2022/10/29 10:43:40;;;;;;;31.92;17.20;;;15.70;99.90;;;;;;6183126;23;20341;-84
2022/10/29 10:46:19;;;;;;;33.97;18.15;;;15.80;99.90;;;;;;6209574;23;20012;-84
2022/10/29 10:49:02;;;;;;;31.88;17.08;;;15.90;99.90;;;;;;6208164;23;20015;-85
2022/10/29 10:51:31;;;;;;;30.35;15.70;;;16.10;99.90;;;;;;6181833;23;20032;-85
2022/10/29 10:53:59;;;;;;;27.73;14.93;;;16.10;99.90;;;;;;6209456;23;20558;-84
2022/10/29 10:56:25;;;;;;;29.48;15.35;;;16.20;99.90;;;;;;6210057;23;20017;-84
2022/10/29 10:58:55;;;;;;;26.02;15.70;;;16.30;99.90;;;;;;6208066;23;20035;-85
2022/10/29 11:01:31;;;;;;;22.73;15.27;;;16.40;99.90;;;;;;6181902;23;20070;-84
2022/10/29 11:04:12;;;;;;;30.05;14.65;;;16.60;99.90;;;;;;6207819;23;20009;-84
2022/10/29 11:06:40;;;;;;;26.10;14.40;;;16.80;99.90;;;;;;6209048;23;20116;-85
2022/10/29 11:09:25;;;;;;;24.02;12.82;;;17.10;99.90;;;;;;6210458;23;20017;-84
2022/10/29 11:12:04;;;;;;;22.92;11.77;;;17.30;99.90;;;;;;6210588;23;20012;-84
2022/10/29 11:14:36;;;;;;;25.88;13.07;;;17.50;99.90;;;;;;6184894;23;20063;-84
2022/10/29 11:17:06;;;;;;;24.27;12.63;;;17.60;99.90;;;;;;6184146;23;20096;-85
2022/10/29 11:19:45;;;;;;;22.00;11.80;;;17.70;99.90;;;;;;6211155;23;20201;-84
2022/10/29 11:22:17;;;;;;;22.52;11.75;;;17.80;99.90;;;;;;6184484;23;20008;-84
2022/10/29 11:24:46;;;;;;;17.60;9.40;;;17.80;99.90;;;;;;6211311;23;20028;-84
2022/10/29 11:27:20;;;;;;;19.27;9.98;;;17.90;99.90;;;;;;6211205;23;20019;-84
2022/10/29 11:30:03;;;;;;;18.45;9.50;;;17.90;99.90;;;;;;6184093;23;20021;-85
2022/10/29 11:32:52;;;;;;;22.17;9.70;;;17.90;99.90;;;;;;6210828;23;20013;-85
2022/10/29 11:35:31;;;;;;;22.77;10.07;;;17.90;99.90;;;;;;6184479;23;20018;-87
2022/10/29 11:38:18;;;;;;;24.73;9.43;;;18.00;99.90;;;;;;6184529;23;20016;-87
2022/10/29 11:40:53;;;;;;;20.80;9.25;;;18.00;99.90;;;;;;6184574;23;20461;-84
2022/10/29 11:43:20;;;;;;;17.85;9.13;;;18.20;99.90;;;;;;6184400;23;20021;-86
2022/10/29 11:46:18;;;;;;;20.42;10.02;;;18.40;99.90;;;;;;6184629;23;20024;-84
2022/10/29 11:48:52;;;;;;;18.48;9.38;;;18.60;99.90;;;;;;6212294;23;20080;-84
2022/10/29 11:51:46;;;;;;;16.38;8.77;;;18.80;99.90;;;;;;6185350;23;20049;-84
2022/10/29 11:54:27;;;;;;;19.23;8.50;;;18.90;99.90;;;;;;6185198;23;20047;-84
2022/10/29 11:57:02;;;;;;;19.55;8.00;;;18.80;99.90;;;;;;6185782;23;20058;-84
2022/10/29 12:00:23;;;;;;;16.65;7.82;;;18.90;99.90;;;;;;6185080;23;20016;-84
2022/10/29 12:03:10;;;;;;;17.45;7.22;;;18.90;99.90;;;;;;6059847;23;20015;-85
2022/10/29 12:05:57;;;;;;;18.85;7.55;;;18.90;99.90;;;;;;6061472;23;20030;-84
2022/10/29 12:08:44;;;;;;;19.08;8.23;;;19.00;99.90;;;;;;6061119;23;20015;-85
2022/10/29 12:11:27;;;;;;;22.23;7.50;;;19.10;99.90;;;;;;6061664;23;20015;-84
2022/10/29 12:14:32;;;;;;;20.92;7.45;;;19.00;99.90;;;;;;6061275;23;20029;-86
2022/10/29 12:17:44;;;;;;;16.38;7.97;;;18.90;99.90;;;;;;6037369;23;20014;-86
2022/10/29 12:20:16;;;;;;;19.92;8.25;;;18.90;99.90;;;;;;6062722;23;20030;-89
2022/10/29 12:22:56;;;;;;;19.35;8.43;;;18.80;99.90;;;;;;6059991;23;20050;-82
2022/10/29 12:25:46;;;;;;;19.02;8.48;;;18.80;99.90;;;;;;6035856;23;20023;-81
2022/10/29 12:28:18;;;;;;;18.25;6.97;;;18.80;99.90;;;;;;6036330;23;20514;-81
2022/10/29 12:31:27;;;;;;;18.00;7.57;;;18.80;99.90;;;;;;6035783;23;20101;-82
2022/10/29 12:34:06;;;;;;;21.05;7.47;;;18.80;99.90;;;;;;6003561;23;20015;-80
2022/10/29 12:36:41;;;;;;;19.38;7.53;;;18.80;99.90;;;;;;6093778;23;20016;-82
2022/10/29 12:39:16;;;;;;;17.73;7.97;;;18.80;99.90;;;;;;6184556;23;20040;-83
2022/10/29 12:41:47;;;;;;;19.15;7.88;;;18.70;99.90;;;;;;6185122;23;20032;-84
2022/10/29 12:44:18;;;;;;;15.60;8.93;;;18.70;99.90;;;;;;6161523;23;20020;-86
2022/10/29 12:47:28;;;;;;;26.85;13.77;;;18.70;99.90;;;;;;6185112;23;20100;-85
2022/10/29 12:50:21;;;;;;;27.70;11.93;;;18.90;99.90;;;;;;6135414;23;20020;-86
2022/10/29 12:53:11;;;;;;;20.48;9.40;;;19.10;99.90;;;;;;6160251;23;20052;-85
2022/10/29 12:55:38;;;;;;;22.45;8.95;;;19.20;99.90;;;;;;6183896;23;20341;-84